sensor_id;sensor_type;location;lat;lon;timestamp;temperature;humidity
21582;DHT22;10952;50.836;4.348;2023-02-15T00:05:42;8.90;99.90
21582;DHT22;10952;50.836;4.348;2023-02-15T00:08:08;8.70;99.90
21582;DHT22;10952;50.836;4.348;2023-02-15T00:10:35;8.70;99.90
21582;DHT22;10952;50.836;4.348;2023-02-15T00:13:00;8.80;99.90
21582;DHT22;10952;50.836;4.348;2023-02-15T00:15:29;8.90;99.90
21582;DHT22;10952;50.836;4.348;2023-02-15T00:17:58;9.00;99.90
21582;DHT22;10952;50.836;4.348;2023-02-15T00:20:24;8.90;99.90
21582;DHT22;10952;50.836;4.348;2023-02-15T00:22:52;8.90;99.90
21582;DHT22;10952;50.836;4.348;2023-02-15T00:25:18;8.70;99.90
21582;DHT22;10952;50.836;4.348;2023-02-15T00:27:45;8.60;99.90
21582;DHT22;10952;50.836;4.348;2023-02-15T00:30:11;8.60;99.90
21582;DHT22;10952;50.836;4.348;2023-02-15T00:32:38;8.60;99.90
21582;DHT22;10952;50.836;4.348;2023-02-15T00:35:09;8.50;99.90
21582;DHT22;10952;50.836;4.348;2023-02-15T00:37:39;8.50;99.90
21582;DHT22;10952;50.836;4.348;2023-02-15T00:40:06;8.30;99.90
21582;DHT22;10952;50.836;4.348;2023-02-15T00:42:32;8.20;99.90
21582;DHT22;10952;50.836;4.348;2023-02-15T00:44:58;8.20;99.90
21582;DHT22;10952;50.836;4.348;2023-02-15T00:47:40;8.10;99.90
21582;DHT22;10952;50.836;4.348;2023-02-15T00:50:07;8.10;99.90
21582;DHT22;10952;50.836;4.348;2023-02-15T00:52:33;8.10;99.90
21582;DHT22;10952;50.836;4.348;2023-02-15T00:54:59;8.10;99.90
21582;DHT22;10952;50.836;4.348;2023-02-15T00:57:27;8.20;99.90
21582;DHT22;10952;50.836;4.348;2023-02-15T00:59:56;8.30;99.90
21582;DHT22;10952;50.836;4.348;2023-02-15T01:02:24;8.40;99.90
21582;DHT22;10952;50.836;4.348;2023-02-15T01:04:52;8.30;99.90
21582;DHT22;10952;50.836;4.348;2023-02-15T01:07:21;8.20;99.90
21582;DHT22;10952;50.836;4.348;2023-02-15T01:09:50;8.20;99.90
21582;DHT22;10952;50.836;4.348;2023-02-15T01:12:18;8.20;99.90
21582;DHT22;10952;50.836;4.348;2023-02-15T01:14:47;8.40;99.90
21582;DHT22;10952;50.836;4.348;2023-02-15T01:17:14;8.30;99.90
21582;DHT22;10952;50.836;4.348;2023-02-15T01:19:40;8.20;99.90
21582;DHT22;10952;50.836;4.348;2023-02-15T01:22:08;8.00;99.90
21582;DHT22;10952;50.836;4.348;2023-02-15T01:24:37;7.90;99.90
21582;DHT22;10952;50.836;4.348;2023-02-15T01:27:06;7.80;99.90
21582;DHT22;10952;50.836;4.348;2023-02-15T01:29:34;7.60;99.90
21582;DHT22;10952;50.836;4.348;2023-02-15T01:32:00;7.60;99.90
21582;DHT22;10952;50.836;4.348;2023-02-15T01:34:29;7.80;99.90
21582;DHT22;10952;50.836;4.348;2023-02-15T01:36:55;7.70;99.90
21582;DHT22;10952;50.836;4.348;2023-02-15T01:39:20;7.70;99.90
21582;DHT22;10952;50.836;4.348;2023-02-15T01:41:47;7.70;99.90
21582;DHT22;10952;50.836;4.348;2023-02-15T01:44:51;7.70;99.90
21582;DHT22;10952;50.836;4.348;2023-02-15T01:47:43;7.70;99.90
21582;DHT22;10952;50.836;4.348;2023-02-15T01:53:05;7.80;99.90
21582;DHT22;10952;50.836;4.348;2023-02-15T01:55:40;8.00;99.90
21582;DHT22;10952;50.836;4.348;2023-02-15T01:58:08;7.90;99.90
21582;DHT22;10952;50.836;4.348;2023-02-15T02:00:34;7.90;99.90
21582;DHT22;10952;50.836;4.348;2023-02-15T02:03:00;7.80;99.90
21582;DHT22;10952;50.836;4.348;2023-02-15T02:05:28;7.80;99.90
21582;DHT22;10952;50.836;4.348;2023-02-15T02:07:57;7.90;99.90
21582;DHT22;10952;50.836;4.348;2023-02-15T02:10:24;7.90;99.90
21582;DHT22;10952;50.836;4.348;2023-02-15T02:12:59;8.00;99.90
21582;DHT22;10952;50.836;4.348;2023-02-15T02:30:13;7.90;99.90
21582;DHT22;10952;50.836;4.348;2023-02-15T02:35:23;8.00;99.90
21582;DHT22;10952;50.836;4.348;2023-02-15T02:38:01;7.90;99.90
21582;DHT22;10952;50.836;4.348;2023-02-15T02:40:52;8.00;99.90
21582;DHT22;10952;50.836;4.348;2023-02-15T02:43:47;8.00;99.90
21582;DHT22;10952;50.836;4.348;2023-02-15T02:46:22;7.90;99.90
21582;DHT22;10952;50.836;4.348;2023-02-15T02:48:50;7.80;99.90
21582;DHT22;10952;50.836;4.348;2023-02-15T02:51:16;7.70;99.90
21582;DHT22;10952;50.836;4.348;2023-02-15T02:53:58;7.70;99.90
21582;DHT22;10952;50.836;4.348;2023-02-15T02:56:42;7.70;99.90
21582;DHT22;10952;50.836;4.348;2023-02-15T03:02:03;7.60;99.90
21582;DHT22;10952;50.836;4.348;2023-02-15T03:04:35;7.60;99.90
21582;DHT22;10952;50.836;4.348;2023-02-15T03:07:06;7.60;99.90
21582;DHT22;10952;50.836;4.348;2023-02-15T03:09:42;7.60;99.90
21582;DHT22;10952;50.836;4.348;2023-02-15T03:12:13;7.70;99.90
21582;DHT22;10952;50.836;4.348;2023-02-15T03:14:44;7.70;99.90
21582;DHT22;10952;50.836;4.348;2023-02-15T03:17:44;7.70;99.90
21582;DHT22;10952;50.836;4.348;2023-02-15T03:20:18;7.70;99.90
21582;DHT22;10952;50.836;4.348;2023-02-15T03:26:08;7.80;99.90
21582;DHT22;10952;50.836;4.348;2023-02-15T03:28:41;7.90;99.90
21582;DHT22;10952;50.836;4.348;2023-02-15T03:40:50;7.80;99.90
21582;DHT22;10952;50.836;4.348;2023-02-15T03:47:09;7.80;99.90
21582;DHT22;10952;50.836;4.348;2023-02-15T03:49:49;7.70;99.90
21582;DHT22;10952;50.836;4.348;2023-02-15T03:52:21;7.60;99.90
21582;DHT22;10952;50.836;4.348;2023-02-15T03:58:09;7.60;99.90
21582;DHT22;10952;50.836;4.348;2023-02-15T04:04:19;7.80;99.90
21582;DHT22;10952;50.836;4.348;2023-02-15T04:10:15;7.60;99.90
21582;DHT22;10952;50.836;4.348;2023-02-15T04:13:00;7.50;99.90
21582;DHT22;10952;50.836;4.348;2023-02-15T04:15:26;7.40;99.90
21582;DHT22;10952;50.836;4.348;2023-02-15T04:18:11;7.50;99.90
21582;DHT22;10952;50.836;4.348;2023-02-15T04:20:38;7.60;99.90
21582;DHT22;10952;50.836;4.348;2023-02-15T04:23:26;7.60;99.90
21582;DHT22;10952;50.836;4.348;2023-02-15T04:26:11;7.60;99.90
21582;DHT22;10952;50.836;4.348;2023-02-15T04:28:37;7.50;99.90
21582;DHT22;10952;50.836;4.348;2023-02-15T04:31:03;7.50;99.90
21582;DHT22;10952;50.836;4.348;2023-02-15T04:33:28;7.40;99.90
21582;DHT22;10952;50.836;4.348;2023-02-15T04:35:54;7.20;99.90
21582;DHT22;10952;50.836;4.348;2023-02-15T04:38:20;7.00;99.90
21582;DHT22;10952;50.836;4.348;2023-02-15T04:40:50;6.80;99.90
21582;DHT22;10952;50.836;4.348;2023-02-15T04:43:17;6.80;99.90
21582;DHT22;10952;50.836;4.348;2023-02-15T04:45:48;6.70;99.90
21582;DHT22;10952;50.836;4.348;2023-02-15T04:48:15;6.70;99.90
21582;DHT22;10952;50.836;4.348;2023-02-15T04:50:41;6.80;99.90
21582;DHT22;10952;50.836;4.348;2023-02-15T04:53:07;6.70;99.90
21582;DHT22;10952;50.836;4.348;2023-02-15T04:55:33;6.50;99.90
21582;DHT22;10952;50.836;4.348;2023-02-15T04:57:59;6.50;99.90
21582;DHT22;10952;50.836;4.348;2023-02-15T05:00:24;6.50;99.90
21582;DHT22;10952;50.836;4.348;2023-02-15T05:02:50;6.60;99.90
21582;DHT22;10952;50.836;4.348;2023-02-15T05:05:22;6.60;99.90
21582;DHT22;10952;50.836;4.348;2023-02-15T05:07:47;6.60;99.90
21582;DHT22;10952;50.836;4.348;2023-02-15T05:10:13;6.70;99.90
21582;DHT22;10952;50.836;4.348;2023-02-15T05:12:39;6.60;99.90
21582;DHT22;10952;50.836;4.348;2023-02-15T05:15:04;6.60;99.90
21582;DHT22;10952;50.836;4.348;2023-02-15T05:17:30;6.70;99.90
21582;DHT22;10952;50.836;4.348;2023-02-15T05:19:56;6.60;99.90
21582;DHT22;10952;50.836;4.348;2023-02-15T05:22:22;6.60;99.90
21582;DHT22;10952;50.836;4.348;2023-02-15T05:24:47;6.50;99.90
21582;DHT22;10952;50.836;4.348;2023-02-15T05:27:32;6.60;99.90
21582;DHT22;10952;50.836;4.348;2023-02-15T05:30:16;6.40;99.90
21582;DHT22;10952;50.836;4.348;2023-02-15T05:32:43;6.40;99.90
21582;DHT22;10952;50.836;4.348;2023-02-15T05:35:14;6.30;99.90
21582;DHT22;10952;50.836;4.348;2023-02-15T05:37:42;6.30;99.90
21582;DHT22;10952;50.836;4.348;2023-02-15T05:40:09;6.40;99.90
21582;DHT22;10952;50.836;4.348;2023-02-15T05:42:35;6.30;99.90
21582;DHT22;10952;50.836;4.348;2023-02-15T05:45:01;6.20;99.90
21582;DHT22;10952;50.836;4.348;2023-02-15T05:47:27;6.20;99.90
21582;DHT22;10952;50.836;4.348;2023-02-15T05:49:56;6.20;99.90
21582;DHT22;10952;50.836;4.348;2023-02-15T05:52:51;6.20;99.90
21582;DHT22;10952;50.836;4.348;2023-02-15T05:55:17;6.30;99.90
21582;DHT22;10952;50.836;4.348;2023-02-15T05:57:43;6.20;99.90
21582;DHT22;10952;50.836;4.348;2023-02-15T06:00:19;6.30;99.90
21582;DHT22;10952;50.836;4.348;2023-02-15T06:09:30;6.30;99.90
21582;DHT22;10952;50.836;4.348;2023-02-15T06:15:17;6.40;99.90
21582;DHT22;10952;50.836;4.348;2023-02-15T06:17:46;6.30;99.90
21582;DHT22;10952;50.836;4.348;2023-02-15T06:23:18;6.30;99.90
21582;DHT22;10952;50.836;4.348;2023-02-15T06:25:47;6.30;99.90
21582;DHT22;10952;50.836;4.348;2023-02-15T06:28:19;6.20;99.90
21582;DHT22;10952;50.836;4.348;2023-02-15T06:30:48;6.20;99.90
21582;DHT22;10952;50.836;4.348;2023-02-15T06:33:22;6.10;99.90
21582;DHT22;10952;50.836;4.348;2023-02-15T06:35:48;6.10;99.90
21582;DHT22;10952;50.836;4.348;2023-02-15T06:38:31;6.10;99.90
21582;DHT22;10952;50.836;4.348;2023-02-15T06:41:07;6.20;99.90
21582;DHT22;10952;50.836;4.348;2023-02-15T06:43:47;6.10;99.90
21582;DHT22;10952;50.836;4.348;2023-02-15T06:46:49;6.30;99.90
21582;DHT22;10952;50.836;4.348;2023-02-15T06:49:43;6.30;99.90
21582;DHT22;10952;50.836;4.348;2023-02-15T06:52:16;6.30;99.90
21582;DHT22;10952;50.836;4.348;2023-02-15T06:54:45;6.30;99.90
21582;DHT22;10952;50.836;4.348;2023-02-15T06:57:14;6.30;99.90
21582;DHT22;10952;50.836;4.348;2023-02-15T06:59:42;6.30;99.90
21582;DHT22;10952;50.836;4.348;2023-02-15T07:02:12;6.30;99.90
21582;DHT22;10952;50.836;4.348;2023-02-15T07:04:38;6.30;99.90
21582;DHT22;10952;50.836;4.348;2023-02-15T07:07:08;6.30;99.90
21582;DHT22;10952;50.836;4.348;2023-02-15T07:09:36;6.30;99.90
21582;DHT22;10952;50.836;4.348;2023-02-15T07:12:02;6.30;99.90
21582;DHT22;10952;50.836;4.348;2023-02-15T07:14:49;6.40;99.90
21582;DHT22;10952;50.836;4.348;2023-02-15T07:17:14;6.50;99.90
21582;DHT22;10952;50.836;4.348;2023-02-15T07:23:04;6.60;99.90
21582;DHT22;10952;50.836;4.348;2023-02-15T07:25:30;6.50;99.90
21582;DHT22;10952;50.836;4.348;2023-02-15T07:28:01;6.60;99.90
21582;DHT22;10952;50.836;4.348;2023-02-15T07:30:29;6.50;99.90
21582;DHT22;10952;50.836;4.348;2023-02-15T07:32:59;6.60;99.90
21582;DHT22;10952;50.836;4.348;2023-02-15T07:35:48;6.60;99.90
21582;DHT22;10952;50.836;4.348;2023-02-15T07:38:15;6.60;99.90
21582;DHT22;10952;50.836;4.348;2023-02-15T07:40:46;6.60;99.90
21582;DHT22;10952;50.836;4.348;2023-02-15T07:43:13;6.60;99.90
21582;DHT22;10952;50.836;4.348;2023-02-15T07:45:40;6.60;99.90
21582;DHT22;10952;50.836;4.348;2023-02-15T07:48:06;6.60;99.90
21582;DHT22;10952;50.836;4.348;2023-02-15T07:50:34;6.60;99.90
21582;DHT22;10952;50.836;4.348;2023-02-15T07:53:02;6.70;99.90
21582;DHT22;10952;50.836;4.348;2023-02-15T07:55:30;6.70;99.90
21582;DHT22;10952;50.836;4.348;2023-02-15T07:57:56;6.80;99.90
21582;DHT22;10952;50.836;4.348;2023-02-15T08:00:52;6.90;99.90
21582;DHT22;10952;50.836;4.348;2023-02-15T08:03:52;6.90;99.90
21582;DHT22;10952;50.836;4.348;2023-02-15T08:06:40;7.00;99.90
21582;DHT22;10952;50.836;4.348;2023-02-15T08:09:07;7.10;99.90
21582;DHT22;10952;50.836;4.348;2023-02-15T08:11:37;7.20;99.90
21582;DHT22;10952;50.836;4.348;2023-02-15T08:14:09;7.30;99.90
21582;DHT22;10952;50.836;4.348;2023-02-15T08:16:45;7.20;99.90
21582;DHT22;10952;50.836;4.348;2023-02-15T08:19:17;7.30;99.90
21582;DHT22;10952;50.836;4.348;2023-02-15T08:21:48;7.30;99.90
21582;DHT22;10952;50.836;4.348;2023-02-15T08:24:18;7.30;99.90
21582;DHT22;10952;50.836;4.348;2023-02-15T08:26:48;7.40;99.90
21582;DHT22;10952;50.836;4.348;2023-02-15T08:29:20;7.50;99.90
21582;DHT22;10952;50.836;4.348;2023-02-15T08:31:48;7.40;99.90
21582;DHT22;10952;50.836;4.348;2023-02-15T08:34:17;7.60;99.90
21582;DHT22;10952;50.836;4.348;2023-02-15T08:36:43;7.50;99.90
21582;DHT22;10952;50.836;4.348;2023-02-15T08:42:34;7.60;99.90
21582;DHT22;10952;50.836;4.348;2023-02-15T08:45:35;7.70;99.90
21582;DHT22;10952;50.836;4.348;2023-02-15T08:48:23;7.60;99.90
21582;DHT22;10952;50.836;4.348;2023-02-15T08:50:48;7.70;99.90
21582;DHT22;10952;50.836;4.348;2023-02-15T08:53:17;7.90;99.90
21582;DHT22;10952;50.836;4.348;2023-02-15T08:55:59;7.90;99.90
21582;DHT22;10952;50.836;4.348;2023-02-15T08:58:25;8.00;99.90
21582;DHT22;10952;50.836;4.348;2023-02-15T09:00:54;8.00;99.90
21582;DHT22;10952;50.836;4.348;2023-02-15T09:03:19;8.10;99.90
21582;DHT22;10952;50.836;4.348;2023-02-15T09:05:46;8.00;99.90
21582;DHT22;10952;50.836;4.348;2023-02-15T09:08:14;8.00;99.90
21582;DHT22;10952;50.836;4.348;2023-02-15T09:10:40;8.10;99.90
21582;DHT22;10952;50.836;4.348;2023-02-15T09:13:09;7.90;99.90
21582;DHT22;10952;50.836;4.348;2023-02-15T09:15:36;8.00;99.90
21582;DHT22;10952;50.836;4.348;2023-02-15T09:18:02;8.00;99.90
21582;DHT22;10952;50.836;4.348;2023-02-15T09:20:45;8.10;99.90
21582;DHT22;10952;50.836;4.348;2023-02-15T09:23:14;8.10;99.90
21582;DHT22;10952;50.836;4.348;2023-02-15T09:25:44;8.20;99.90
21582;DHT22;10952;50.836;4.348;2023-02-15T09:28:10;8.30;99.90
21582;DHT22;10952;50.836;4.348;2023-02-15T09:30:38;8.40;99.90
21582;DHT22;10952;50.836;4.348;2023-02-15T09:33:04;8.50;99.90
21582;DHT22;10952;50.836;4.348;2023-02-15T09:35:29;8.70;99.90
21582;DHT22;10952;50.836;4.348;2023-02-15T09:37:56;8.80;99.90
21582;DHT22;10952;50.836;4.348;2023-02-15T09:40:24;8.90;99.90
21582;DHT22;10952;50.836;4.348;2023-02-15T09:43:30;8.90;99.90
21582;DHT22;10952;50.836;4.348;2023-02-15T09:46:06;9.00;99.90
21582;DHT22;10952;50.836;4.348;2023-02-15T09:48:41;9.20;99.90
21582;DHT22;10952;50.836;4.348;2023-02-15T09:56:31;9.50;99.90
21582;DHT22;10952;50.836;4.348;2023-02-15T09:59:18;9.60;99.90
21582;DHT22;10952;50.836;4.348;2023-02-15T10:28:20;10.60;99.90
21582;DHT22;10952;50.836;4.348;2023-02-15T10:40:10;11.20;99.90
21582;DHT22;10952;50.836;4.348;2023-02-15T10:46:33;11.50;99.90
21582;DHT22;10952;50.836;4.348;2023-02-15T10:49:33;11.70;99.90
21582;DHT22;10952;50.836;4.348;2023-02-15T10:52:34;12.00;99.90
21582;DHT22;10952;50.836;4.348;2023-02-15T11:00:54;12.50;99.90
21582;DHT22;10952;50.836;4.348;2023-02-15T11:03:51;13.20;99.90
21582;DHT22;10952;50.836;4.348;2023-02-15T11:06:21;14.00;99.90
21582;DHT22;10952;50.836;4.348;2023-02-15T11:09:12;14.90;99.90
21582;DHT22;10952;50.836;4.348;2023-02-15T11:11:56;15.50;99.90
21582;DHT22;10952;50.836;4.348;2023-02-15T11:14:40;15.90;99.90
21582;DHT22;10952;50.836;4.348;2023-02-15T11:17:14;16.30;99.90
21582;DHT22;10952;50.836;4.348;2023-02-15T11:22:18;16.70;99.90
21582;DHT22;10952;50.836;4.348;2023-02-15T11:24:47;16.60;99.90
21582;DHT22;10952;50.836;4.348;2023-02-15T11:27:19;16.40;99.90
21582;DHT22;10952;50.836;4.348;2023-02-15T11:29:57;15.90;99.90
21582;DHT22;10952;50.836;4.348;2023-02-15T11:32:40;15.70;99.90
21582;DHT22;10952;50.836;4.348;2023-02-15T11:38:07;16.70;99.90
21582;DHT22;10952;50.836;4.348;2023-02-15T11:40:59;17.30;99.90
21582;DHT22;10952;50.836;4.348;2023-02-15T11:46:05;18.70;99.90
21582;DHT22;10952;50.836;4.348;2023-02-15T11:48:32;19.10;99.90
21582;DHT22;10952;50.836;4.348;2023-02-15T11:51:02;19.00;99.90
21582;DHT22;10952;50.836;4.348;2023-02-15T11:53:33;18.50;99.90
21582;DHT22;10952;50.836;4.348;2023-02-15T11:59:34;18.40;99.90
21582;DHT22;10952;50.836;4.348;2023-02-15T12:02:02;18.00;99.90
21582;DHT22;10952;50.836;4.348;2023-02-15T12:04:36;18.00;99.90
21582;DHT22;10952;50.836;4.348;2023-02-15T12:07:23;18.10;99.90
21582;DHT22;10952;50.836;4.348;2023-02-15T12:10:25;18.20;99.90
21582;DHT22;10952;50.836;4.348;2023-02-15T12:13:19;17.70;99.90
21582;DHT22;10952;50.836;4.348;2023-02-15T12:15:54;17.30;99.90
21582;DHT22;10952;50.836;4.348;2023-02-15T12:18:34;17.10;99.90
21582;DHT22;10952;50.836;4.348;2023-02-15T12:24:38;16.40;99.90
21582;DHT22;10952;50.836;4.348;2023-02-15T12:27:28;16.30;99.90
21582;DHT22;10952;50.836;4.348;2023-02-15T12:30:15;16.10;99.90
21582;DHT22;10952;50.836;4.348;2023-02-15T12:36:26;16.20;99.90
21582;DHT22;10952;50.836;4.348;2023-02-15T12:42:51;17.00;99.90
21582;DHT22;10952;50.836;4.348;2023-02-15T12:50:39;17.90;99.90
21582;DHT22;10952;50.836;4.348;2023-02-15T12:53:19;17.70;99.90
21582;DHT22;10952;50.836;4.348;2023-02-15T12:56:00;17.90;99.90
21582;DHT22;10952;50.836;4.348;2023-02-15T12:58:37;18.20;99.90
21582;DHT22;10952;50.836;4.348;2023-02-15T13:01:13;18.10;99.90
21582;DHT22;10952;50.836;4.348;2023-02-15T13:04:06;17.80;99.90
21582;DHT22;10952;50.836;4.348;2023-02-15T13:06:48;17.70;99.90
21582;DHT22;10952;50.836;4.348;2023-02-15T13:11:57;17.80;99.90
21582;DHT22;10952;50.836;4.348;2023-02-15T13:14:32;17.70;99.90
21582;DHT22;10952;50.836;4.348;2023-02-15T13:17:02;17.50;99.90
21582;DHT22;10952;50.836;4.348;2023-02-15T13:19:52;17.50;99.90
21582;DHT22;10952;50.836;4.348;2023-02-15T13:22:37;17.30;99.90
21582;DHT22;10952;50.836;4.348;2023-02-15T13:25:19;17.40;99.90
21582;DHT22;10952;50.836;4.348;2023-02-15T13:27:51;17.30;99.90
21582;DHT22;10952;50.836;4.348;2023-02-15T13:30:25;16.70;99.90
21582;DHT22;10952;50.836;4.348;2023-02-15T13:33:36;16.40;99.90
21582;DHT22;10952;50.836;4.348;2023-02-15T13:36:09;16.50;99.90
21582;DHT22;10952;50.836;4.348;2023-02-15T13:41:32;16.50;99.90
21582;DHT22;10952;50.836;4.348;2023-02-15T13:44:20;16.30;99.90
21582;DHT22;10952;50.836;4.348;2023-02-15T13:50:02;16.20;99.90
21582;DHT22;10952;50.836;4.348;2023-02-15T13:58:14;15.50;99.90
21582;DHT22;10952;50.836;4.348;2023-02-15T14:09:56;15.40;99.90
21582;DHT22;10952;50.836;4.348;2023-02-15T14:12:35;15.30;99.90
21582;DHT22;10952;50.836;4.348;2023-02-15T14:21:36;14.80;99.90
21582;DHT22;10952;50.836;4.348;2023-02-15T14:27:54;14.80;99.90
21582;DHT22;10952;50.836;4.348;2023-02-15T14:30:29;14.70;99.90
21582;DHT22;10952;50.836;4.348;2023-02-15T14:35:48;14.70;99.90
21582;DHT22;10952;50.836;4.348;2023-02-15T14:38:59;14.60;99.90
21582;DHT22;10952;50.836;4.348;2023-02-15T14:41:48;14.70;99.90
21582;DHT22;10952;50.836;4.348;2023-02-15T14:44:39;14.70;99.90
21582;DHT22;10952;50.836;4.348;2023-02-15T14:47:19;14.70;99.90
21582;DHT22;10952;50.836;4.348;2023-02-15T14:49:50;14.70;99.90
21582;DHT22;10952;50.836;4.348;2023-02-15T14:52:19;14.70;99.90
21582;DHT22;10952;50.836;4.348;2023-02-15T14:59:55;14.60;99.90
21582;DHT22;10952;50.836;4.348;2023-02-15T15:02:45;14.60;99.90
21582;DHT22;10952;50.836;4.348;2023-02-15T15:05:21;14.60;99.90
21582;DHT22;10952;50.836;4.348;2023-02-15T15:07:58;14.60;99.90
21582;DHT22;10952;50.836;4.348;2023-02-15T15:10:45;14.60;99.90
21582;DHT22;10952;50.836;4.348;2023-02-15T15:22:24;14.60;99.90
21582;DHT22;10952;50.836;4.348;2023-02-15T15:25:01;14.70;99.90
21582;DHT22;10952;50.836;4.348;2023-02-15T15:27:47;14.60;99.90
21582;DHT22;10952;50.836;4.348;2023-02-15T15:35:44;14.60;99.90
21582;DHT22;10952;50.836;4.348;2023-02-15T15:44:26;14.50;99.90
21582;DHT22;10952;50.836;4.348;2023-02-15T15:49:46;14.50;99.90
21582;DHT22;10952;50.836;4.348;2023-02-15T15:52:34;14.50;99.90
21582;DHT22;10952;50.836;4.348;2023-02-15T15:55:12;14.30;99.90
21582;DHT22;10952;50.836;4.348;2023-02-15T15:57:44;14.20;99.90
21582;DHT22;10952;50.836;4.348;2023-02-15T16:03:02;14.10;99.90
21582;DHT22;10952;50.836;4.348;2023-02-15T16:05:36;14.00;99.90
21582;DHT22;10952;50.836;4.348;2023-02-15T16:08:06;13.90;99.90
21582;DHT22;10952;50.836;4.348;2023-02-15T16:10:33;13.80;99.90
21582;DHT22;10952;50.836;4.348;2023-02-15T16:13:00;13.90;99.90
21582;DHT22;10952;50.836;4.348;2023-02-15T16:15:43;13.80;99.90
21582;DHT22;10952;50.836;4.348;2023-02-15T16:18:14;13.90;99.90
21582;DHT22;10952;50.836;4.348;2023-02-15T16:20:41;13.90;99.90
21582;DHT22;10952;50.836;4.348;2023-02-15T16:26:19;13.60;99.90
21582;DHT22;10952;50.836;4.348;2023-02-15T16:28:53;13.60;99.90
21582;DHT22;10952;50.836;4.348;2023-02-15T16:31:22;13.60;99.90
21582;DHT22;10952;50.836;4.348;2023-02-15T16:33:54;13.60;99.90
21582;DHT22;10952;50.836;4.348;2023-02-15T16:36:30;13.70;99.90
21582;DHT22;10952;50.836;4.348;2023-02-15T16:39:12;13.60;99.90
21582;DHT22;10952;50.836;4.348;2023-02-15T16:42:16;13.50;99.90
21582;DHT22;10952;50.836;4.348;2023-02-15T16:45:06;13.50;99.90
21582;DHT22;10952;50.836;4.348;2023-02-15T16:47:40;13.30;99.90
21582;DHT22;10952;50.836;4.348;2023-02-15T16:50:28;13.30;99.90
21582;DHT22;10952;50.836;4.348;2023-02-15T16:53:04;13.30;99.90
21582;DHT22;10952;50.836;4.348;2023-02-15T16:55:39;13.30;99.90
21582;DHT22;10952;50.836;4.348;2023-02-15T16:58:29;13.20;99.90
21582;DHT22;10952;50.836;4.348;2023-02-15T17:00:59;13.10;99.90
21582;DHT22;10952;50.836;4.348;2023-02-15T17:03:26;13.20;99.90
21582;DHT22;10952;50.836;4.348;2023-02-15T17:06:02;13.10;99.90
21582;DHT22;10952;50.836;4.348;2023-02-15T17:08:44;13.00;99.90
21582;DHT22;10952;50.836;4.348;2023-02-15T17:11:21;12.90;99.90
21582;DHT22;10952;50.836;4.348;2023-02-15T17:14:10;12.80;99.90
21582;DHT22;10952;50.836;4.348;2023-02-15T17:16:59;12.70;99.90
21582;DHT22;10952;50.836;4.348;2023-02-15T17:19:31;12.70;99.90
21582;DHT22;10952;50.836;4.348;2023-02-15T17:22:01;12.60;99.90
21582;DHT22;10952;50.836;4.348;2023-02-15T17:24:42;12.70;99.90
21582;DHT22;10952;50.836;4.348;2023-02-15T17:27:36;12.80;99.90
21582;DHT22;10952;50.836;4.348;2023-02-15T17:30:15;12.60;99.90
21582;DHT22;10952;50.836;4.348;2023-02-15T17:32:59;12.50;99.90
21582;DHT22;10952;50.836;4.348;2023-02-15T17:35:27;12.50;99.90
21582;DHT22;10952;50.836;4.348;2023-02-15T17:38:17;12.50;99.90
21582;DHT22;10952;50.836;4.348;2023-02-15T17:40:45;12.50;99.90
21582;DHT22;10952;50.836;4.348;2023-02-15T17:43:12;12.50;99.90
21582;DHT22;10952;50.836;4.348;2023-02-15T17:45:44;12.60;99.90
21582;DHT22;10952;50.836;4.348;2023-02-15T17:50:45;12.70;99.90
21582;DHT22;10952;50.836;4.348;2023-02-15T17:53:11;12.60;99.90
21582;DHT22;10952;50.836;4.348;2023-02-15T18:02:26;12.50;99.90
21582;DHT22;10952;50.836;4.348;2023-02-15T18:05:15;12.40;99.90
21582;DHT22;10952;50.836;4.348;2023-02-15T18:08:03;12.30;99.90
21582;DHT22;10952;50.836;4.348;2023-02-15T18:10:52;12.20;99.90
21582;DHT22;10952;50.836;4.348;2023-02-15T18:13:37;12.20;99.90
21582;DHT22;10952;50.836;4.348;2023-02-15T18:19:04;12.20;99.90
21582;DHT22;10952;50.836;4.348;2023-02-15T18:21:37;12.30;99.90
21582;DHT22;10952;50.836;4.348;2023-02-15T18:24:02;12.20;99.90
21582;DHT22;10952;50.836;4.348;2023-02-15T18:26:50;12.10;99.90
21582;DHT22;10952;50.836;4.348;2023-02-15T18:29:16;11.90;99.90
21582;DHT22;10952;50.836;4.348;2023-02-15T18:31:51;11.80;99.90
21582;DHT22;10952;50.836;4.348;2023-02-15T18:34:28;11.90;99.90
21582;DHT22;10952;50.836;4.348;2023-02-15T18:37:05;12.00;99.90
21582;DHT22;10952;50.836;4.348;2023-02-15T18:39:54;11.90;99.90
21582;DHT22;10952;50.836;4.348;2023-02-15T18:42:35;11.80;99.90
21582;DHT22;10952;50.836;4.348;2023-02-15T18:45:15;12.00;99.90
21582;DHT22;10952;50.836;4.348;2023-02-15T18:47:43;11.90;99.90
21582;DHT22;10952;50.836;4.348;2023-02-15T18:50:10;12.00;99.90
21582;DHT22;10952;50.836;4.348;2023-02-15T18:52:37;11.90;99.90
21582;DHT22;10952;50.836;4.348;2023-02-15T18:55:27;11.80;99.90
21582;DHT22;10952;50.836;4.348;2023-02-15T18:58:00;11.90;99.90
21582;DHT22;10952;50.836;4.348;2023-02-15T19:00:28;11.70;99.90
21582;DHT22;10952;50.836;4.348;2023-02-15T19:03:06;11.70;99.90
21582;DHT22;10952;50.836;4.348;2023-02-15T19:05:32;11.70;99.90
21582;DHT22;10952;50.836;4.348;2023-02-15T19:08:01;11.70;99.90
21582;DHT22;10952;50.836;4.348;2023-02-15T19:10:29;11.70;99.90
21582;DHT22;10952;50.836;4.348;2023-02-15T19:12:56;11.70;99.90
21582;DHT22;10952;50.836;4.348;2023-02-15T19:15:27;11.70;99.90
21582;DHT22;10952;50.836;4.348;2023-02-15T19:17:54;11.70;99.90
21582;DHT22;10952;50.836;4.348;2023-02-15T19:20:25;11.50;99.90
21582;DHT22;10952;50.836;4.348;2023-02-15T19:22:54;11.50;99.90
21582;DHT22;10952;50.836;4.348;2023-02-15T19:25:30;11.50;99.90
21582;DHT22;10952;50.836;4.348;2023-02-15T19:28:08;11.50;99.90
21582;DHT22;10952;50.836;4.348;2023-02-15T19:30:36;11.50;99.90
21582;DHT22;10952;50.836;4.348;2023-02-15T19:33:02;11.40;99.90
21582;DHT22;10952;50.836;4.348;2023-02-15T19:35:32;11.40;99.90
21582;DHT22;10952;50.836;4.348;2023-02-15T19:38:03;11.60;99.90
21582;DHT22;10952;50.836;4.348;2023-02-15T19:40:34;11.30;99.90
21582;DHT22;10952;50.836;4.348;2023-02-15T19:43:01;11.50;99.90
21582;DHT22;10952;50.836;4.348;2023-02-15T19:45:29;11.40;99.90
21582;DHT22;10952;50.836;4.348;2023-02-15T19:47:56;11.30;99.90
21582;DHT22;10952;50.836;4.348;2023-02-15T19:50:24;11.40;99.90
21582;DHT22;10952;50.836;4.348;2023-02-15T19:52:54;11.20;99.90
21582;DHT22;10952;50.836;4.348;2023-02-15T19:57:48;11.30;99.90
21582;DHT22;10952;50.836;4.348;2023-02-15T20:00:19;11.30;99.90
21582;DHT22;10952;50.836;4.348;2023-02-15T20:02:48;11.30;99.90
21582;DHT22;10952;50.836;4.348;2023-02-15T20:05:14;11.30;99.90
21582;DHT22;10952;50.836;4.348;2023-02-15T20:07:48;11.20;99.90
21582;DHT22;10952;50.836;4.348;2023-02-15T20:10:26;11.10;99.90
21582;DHT22;10952;50.836;4.348;2023-02-15T20:13:03;11.10;99.90
21582;DHT22;10952;50.836;4.348;2023-02-15T20:15:33;11.00;99.90
21582;DHT22;10952;50.836;4.348;2023-02-15T20:18:00;11.10;99.90
21582;DHT22;10952;50.836;4.348;2023-02-15T20:20:37;11.10;99.90